sensor_id;sensor_type;location;lat;lon;timestamp;temperature;humidity
53776;DHT22;44276;49.534;6.378;2022-07-09T00:01:46;13.30;99.90
53776;DHT22;44276;49.534;6.378;2022-07-09T00:04:14;13.30;99.90
53776;DHT22;44276;49.534;6.378;2022-07-09T00:06:42;13.30;99.90
53776;DHT22;44276;49.534;6.378;2022-07-09T00:09:10;13.20;99.90
53776;DHT22;44276;49.534;6.378;2022-07-09T00:11:41;13.10;99.90
53776;DHT22;44276;49.534;6.378;2022-07-09T00:14:09;13.00;99.90
53776;DHT22;44276;49.534;6.378;2022-07-09T00:16:37;13.00;99.90
53776;DHT22;44276;49.534;6.378;2022-07-09T00:19:05;13.00;99.90
53776;DHT22;44276;49.534;6.378;2022-07-09T00:21:33;13.00;99.90
53776;DHT22;44276;49.534;6.378;2022-07-09T00:24:01;13.00;99.90
53776;DHT22;44276;49.534;6.378;2022-07-09T00:26:29;13.10;99.90
53776;DHT22;44276;49.534;6.378;2022-07-09T00:28:59;13.10;99.90
53776;DHT22;44276;49.534;6.378;2022-07-09T00:31:27;13.20;99.90
53776;DHT22;44276;49.534;6.378;2022-07-09T00:33:55;13.10;99.90
53776;DHT22;44276;49.534;6.378;2022-07-09T00:36:23;13.00;99.90
53776;DHT22;44276;49.534;6.378;2022-07-09T00:38:51;13.00;99.90
53776;DHT22;44276;49.534;6.378;2022-07-09T00:41:20;12.70;99.90
53776;DHT22;44276;49.534;6.378;2022-07-09T00:43:49;12.60;99.90
53776;DHT22;44276;49.534;6.378;2022-07-09T00:46:19;12.40;99.90
53776;DHT22;44276;49.534;6.378;2022-07-09T00:48:47;12.20;99.90
53776;DHT22;44276;49.534;6.378;2022-07-09T00:51:17;12.10;99.90
53776;DHT22;44276;49.534;6.378;2022-07-09T00:53:46;12.20;99.90
53776;DHT22;44276;49.534;6.378;2022-07-09T00:56:16;12.20;99.90
53776;DHT22;44276;49.534;6.378;2022-07-09T00:58:45;12.20;99.90
53776;DHT22;44276;49.534;6.378;2022-07-09T01:01:14;12.20;99.90
53776;DHT22;44276;49.534;6.378;2022-07-09T01:03:43;12.10;99.90
53776;DHT22;44276;49.534;6.378;2022-07-09T01:06:11;12.10;99.90
53776;DHT22;44276;49.534;6.378;2022-07-09T01:08:42;12.00;99.90
53776;DHT22;44276;49.534;6.378;2022-07-09T01:11:10;12.00;99.90
53776;DHT22;44276;49.534;6.378;2022-07-09T01:13:38;11.90;99.90
53776;DHT22;44276;49.534;6.378;2022-07-09T01:16:11;11.90;99.90
53776;DHT22;44276;49.534;6.378;2022-07-09T01:18:44;11.90;99.90
53776;DHT22;44276;49.534;6.378;2022-07-09T01:21:15;11.90;99.90
53776;DHT22;44276;49.534;6.378;2022-07-09T01:23:43;11.80;99.90
53776;DHT22;44276;49.534;6.378;2022-07-09T01:26:11;11.80;99.90
53776;DHT22;44276;49.534;6.378;2022-07-09T01:28:39;11.70;99.90
53776;DHT22;44276;49.534;6.378;2022-07-09T01:31:08;11.70;99.90
53776;DHT22;44276;49.534;6.378;2022-07-09T01:33:36;11.70;99.90
53776;DHT22;44276;49.534;6.378;2022-07-09T01:36:05;11.70;99.90
53776;DHT22;44276;49.534;6.378;2022-07-09T01:38:35;11.70;99.90
53776;DHT22;44276;49.534;6.378;2022-07-09T01:41:03;11.70;99.90
53776;DHT22;44276;49.534;6.378;2022-07-09T01:43:31;11.70;99.90
53776;DHT22;44276;49.534;6.378;2022-07-09T01:46:00;11.70;99.90
53776;DHT22;44276;49.534;6.378;2022-07-09T01:48:29;11.60;99.90
53776;DHT22;44276;49.534;6.378;2022-07-09T01:50:58;11.60;99.90
53776;DHT22;44276;49.534;6.378;2022-07-09T01:53:26;11.60;99.90
53776;DHT22;44276;49.534;6.378;2022-07-09T01:55:56;11.50;99.90
53776;DHT22;44276;49.534;6.378;2022-07-09T01:58:24;11.40;99.90
53776;DHT22;44276;49.534;6.378;2022-07-09T02:00:52;11.30;99.90
53776;DHT22;44276;49.534;6.378;2022-07-09T02:03:20;11.30;99.90
53776;DHT22;44276;49.534;6.378;2022-07-09T02:05:49;11.30;99.90
53776;DHT22;44276;49.534;6.378;2022-07-09T02:08:17;11.20;99.90
53776;DHT22;44276;49.534;6.378;2022-07-09T02:10:45;11.20;99.90
53776;DHT22;44276;49.534;6.378;2022-07-09T02:13:15;11.20;99.90
53776;DHT22;44276;49.534;6.378;2022-07-09T02:15:44;11.20;99.90
53776;DHT22;44276;49.534;6.378;2022-07-09T02:18:12;11.10;99.90
53776;DHT22;44276;49.534;6.378;2022-07-09T02:20:40;11.10;99.90
53776;DHT22;44276;49.534;6.378;2022-07-09T02:23:09;11.10;99.90
53776;DHT22;44276;49.534;6.378;2022-07-09T02:25:37;11.10;99.90
53776;DHT22;44276;49.534;6.378;2022-07-09T02:28:05;11.10;99.90
53776;DHT22;44276;49.534;6.378;2022-07-09T02:30:35;11.10;99.90
53776;DHT22;44276;49.534;6.378;2022-07-09T02:33:04;11.10;99.90
53776;DHT22;44276;49.534;6.378;2022-07-09T02:35:32;11.10;99.90
53776;DHT22;44276;49.534;6.378;2022-07-09T02:38:00;11.10;99.90
53776;DHT22;44276;49.534;6.378;2022-07-09T02:40:28;11.10;99.90
53776;DHT22;44276;49.534;6.378;2022-07-09T02:42:57;11.00;99.90
53776;DHT22;44276;49.534;6.378;2022-07-09T02:45:25;11.00;99.90
53776;DHT22;44276;49.534;6.378;2022-07-09T02:47:54;10.90;99.90
53776;DHT22;44276;49.534;6.378;2022-07-09T02:50:23;10.90;99.90
53776;DHT22;44276;49.534;6.378;2022-07-09T02:52:51;10.90;99.90
53776;DHT22;44276;49.534;6.378;2022-07-09T02:55:19;11.00;99.90
53776;DHT22;44276;49.534;6.378;2022-07-09T02:57:47;11.00;99.90
53776;DHT22;44276;49.534;6.378;2022-07-09T03:00:15;11.00;99.90
53776;DHT22;44276;49.534;6.378;2022-07-09T03:02:43;10.90;99.90
53776;DHT22;44276;49.534;6.378;2022-07-09T03:05:13;10.80;99.90
53776;DHT22;44276;49.534;6.378;2022-07-09T03:07:41;10.80;99.90
53776;DHT22;44276;49.534;6.378;2022-07-09T03:10:10;10.80;99.90
53776;DHT22;44276;49.534;6.378;2022-07-09T03:12:38;10.70;99.90
53776;DHT22;44276;49.534;6.378;2022-07-09T03:15:07;10.80;99.90
53776;DHT22;44276;49.534;6.378;2022-07-09T03:17:36;10.80;99.90
53776;DHT22;44276;49.534;6.378;2022-07-09T03:20:05;10.80;99.90
53776;DHT22;44276;49.534;6.378;2022-07-09T03:22:35;10.80;99.90
53776;DHT22;44276;49.534;6.378;2022-07-09T03:25:06;10.80;99.90
53776;DHT22;44276;49.534;6.378;2022-07-09T03:27:35;10.90;99.90
53776;DHT22;44276;49.534;6.378;2022-07-09T03:30:04;10.90;99.90
53776;DHT22;44276;49.534;6.378;2022-07-09T03:32:33;10.90;99.90
53776;DHT22;44276;49.534;6.378;2022-07-09T03:35:01;10.90;99.90
53776;DHT22;44276;49.534;6.378;2022-07-09T03:37:30;11.00;99.90
53776;DHT22;44276;49.534;6.378;2022-07-09T03:39:59;11.00;99.90
53776;DHT22;44276;49.534;6.378;2022-07-09T03:42:28;10.90;99.90
53776;DHT22;44276;49.534;6.378;2022-07-09T03:44:56;11.00;99.90
53776;DHT22;44276;49.534;6.378;2022-07-09T03:47:24;11.00;99.90
53776;DHT22;44276;49.534;6.378;2022-07-09T03:49:52;11.10;99.90
53776;DHT22;44276;49.534;6.378;2022-07-09T03:52:21;11.10;99.90
53776;DHT22;44276;49.534;6.378;2022-07-09T03:54:49;11.10;99.90
53776;DHT22;44276;49.534;6.378;2022-07-09T03:57:18;11.10;99.90
53776;DHT22;44276;49.534;6.378;2022-07-09T03:59:46;11.20;99.90
53776;DHT22;44276;49.534;6.378;2022-07-09T04:02:14;11.20;99.90
53776;DHT22;44276;49.534;6.378;2022-07-09T04:04:42;11.40;99.90
53776;DHT22;44276;49.534;6.378;2022-07-09T04:07:11;11.30;99.90
53776;DHT22;44276;49.534;6.378;2022-07-09T04:09:39;11.40;99.90
53776;DHT22;44276;49.534;6.378;2022-07-09T04:12:08;11.40;99.90
53776;DHT22;44276;49.534;6.378;2022-07-09T04:14:38;11.50;99.90
53776;DHT22;44276;49.534;6.378;2022-07-09T04:17:06;11.60;99.90
53776;DHT22;44276;49.534;6.378;2022-07-09T04:19:35;11.80;99.90
53776;DHT22;44276;49.534;6.378;2022-07-09T04:22:04;11.90;99.90
53776;DHT22;44276;49.534;6.378;2022-07-09T04:24:32;12.00;99.90
53776;DHT22;44276;49.534;6.378;2022-07-09T04:27:00;12.20;99.90
53776;DHT22;44276;49.534;6.378;2022-07-09T04:29:29;12.20;99.90
53776;DHT22;44276;49.534;6.378;2022-07-09T04:31:58;12.40;99.90
53776;DHT22;44276;49.534;6.378;2022-07-09T04:34:26;12.50;99.90
53776;DHT22;44276;49.534;6.378;2022-07-09T04:36:54;12.60;99.90
53776;DHT22;44276;49.534;6.378;2022-07-09T04:39:22;12.70;99.90
53776;DHT22;44276;49.534;6.378;2022-07-09T04:41:51;12.90;99.90
53776;DHT22;44276;49.534;6.378;2022-07-09T04:44:19;13.00;99.90
53776;DHT22;44276;49.534;6.378;2022-07-09T04:46:48;13.20;99.90
53776;DHT22;44276;49.534;6.378;2022-07-09T04:49:17;13.40;99.90
53776;DHT22;44276;49.534;6.378;2022-07-09T04:51:45;13.70;99.90
53776;DHT22;44276;49.534;6.378;2022-07-09T04:54:13;13.90;99.90
53776;DHT22;44276;49.534;6.378;2022-07-09T04:56:41;14.10;99.90
53776;DHT22;44276;49.534;6.378;2022-07-09T04:59:09;14.40;99.90
53776;DHT22;44276;49.534;6.378;2022-07-09T05:01:37;14.60;99.90
53776;DHT22;44276;49.534;6.378;2022-07-09T05:04:06;14.70;99.90
53776;DHT22;44276;49.534;6.378;2022-07-09T05:06:35;14.80;99.90
53776;DHT22;44276;49.534;6.378;2022-07-09T05:09:03;14.90;99.90
53776;DHT22;44276;49.534;6.378;2022-07-09T05:11:31;14.90;99.90
53776;DHT22;44276;49.534;6.378;2022-07-09T05:14:00;14.90;99.90
53776;DHT22;44276;49.534;6.378;2022-07-09T05:16:28;14.90;99.90
53776;DHT22;44276;49.534;6.378;2022-07-09T05:18:56;15.00;99.90
53776;DHT22;44276;49.534;6.378;2022-07-09T05:21:24;15.30;99.90
53776;DHT22;44276;49.534;6.378;2022-07-09T05:23:54;15.90;99.90
53776;DHT22;44276;49.534;6.378;2022-07-09T05:26:22;16.70;99.90
53776;DHT22;44276;49.534;6.378;2022-07-09T05:28:50;17.40;99.90
53776;DHT22;44276;49.534;6.378;2022-07-09T05:31:18;18.10;99.90
53776;DHT22;44276;49.534;6.378;2022-07-09T05:34:00;18.90;99.90
53776;DHT22;44276;49.534;6.378;2022-07-09T05:36:28;19.60;99.90
53776;DHT22;44276;49.534;6.378;2022-07-09T05:38:58;20.60;99.90
53776;DHT22;44276;49.534;6.378;2022-07-09T05:41:27;21.70;96.00
53776;DHT22;44276;49.534;6.378;2022-07-09T05:43:55;22.50;79.50
53776;DHT22;44276;49.534;6.378;2022-07-09T05:46:24;22.80;74.20
53776;DHT22;44276;49.534;6.378;2022-07-09T05:48:52;23.20;69.50
53776;DHT22;44276;49.534;6.378;2022-07-09T05:51:20;23.60;68.00
53776;DHT22;44276;49.534;6.378;2022-07-09T05:53:48;24.30;59.30
53776;DHT22;44276;49.534;6.378;2022-07-09T05:56:18;24.60;56.20
53776;DHT22;44276;49.534;6.378;2022-07-09T05:58:46;25.00;51.60
53776;DHT22;44276;49.534;6.378;2022-07-09T06:01:14;25.20;51.60
53776;DHT22;44276;49.534;6.378;2022-07-09T06:03:48;25.40;45.30
53776;DHT22;44276;49.534;6.378;2022-07-09T06:06:17;25.00;47.20
53776;DHT22;44276;49.534;6.378;2022-07-09T06:08:45;24.60;47.80
53776;DHT22;44276;49.534;6.378;2022-07-09T06:11:13;25.20;47.20
53776;DHT22;44276;49.534;6.378;2022-07-09T06:13:42;26.00;42.40
53776;DHT22;44276;49.534;6.378;2022-07-09T06:16:10;25.80;41.10
53776;DHT22;44276;49.534;6.378;2022-07-09T06:18:38;25.30;42.10
53776;DHT22;44276;49.534;6.378;2022-07-09T06:21:07;26.00;40.80
53776;DHT22;44276;49.534;6.378;2022-07-09T06:23:35;26.70;35.80
53776;DHT22;44276;49.534;6.378;2022-07-09T06:26:03;27.20;34.20
53776;DHT22;44276;49.534;6.378;2022-07-09T06:28:31;28.10;32.00
53776;DHT22;44276;49.534;6.378;2022-07-09T06:31:05;28.30;30.90
53776;DHT22;44276;49.534;6.378;2022-07-09T06:33:33;29.30;29.30
53776;DHT22;44276;49.534;6.378;2022-07-09T06:36:01;29.80;28.20
53776;DHT22;44276;49.534;6.378;2022-07-09T06:38:30;29.60;27.80
53776;DHT22;44276;49.534;6.378;2022-07-09T06:40:58;29.60;27.20
53776;DHT22;44276;49.534;6.378;2022-07-09T06:43:26;29.20;27.60
53776;DHT22;44276;49.534;6.378;2022-07-09T06:45:54;30.20;27.10
53776;DHT22;44276;49.534;6.378;2022-07-09T06:48:24;30.40;25.90
53776;DHT22;44276;49.534;6.378;2022-07-09T06:50:52;30.10;26.20
53776;DHT22;44276;49.534;6.378;2022-07-09T06:53:20;30.60;25.60
53776;DHT22;44276;49.534;6.378;2022-07-09T06:55:48;30.60;25.70
53776;DHT22;44276;49.534;6.378;2022-07-09T06:58:16;30.20;25.70
53776;DHT22;44276;49.534;6.378;2022-07-09T07:00:44;30.60;25.60
53776;DHT22;44276;49.534;6.378;2022-07-09T07:03:12;30.90;25.30
53776;DHT22;44276;49.534;6.378;2022-07-09T07:05:42;31.30;24.80
53776;DHT22;44276;49.534;6.378;2022-07-09T07:08:10;30.20;25.50
53776;DHT22;44276;49.534;6.378;2022-07-09T07:10:38;30.10;26.20
53776;DHT22;44276;49.534;6.378;2022-07-09T07:13:09;31.10;25.60
53776;DHT22;44276;49.534;6.378;2022-07-09T07:15:38;31.80;24.40
53776;DHT22;44276;49.534;6.378;2022-07-09T07:18:06;32.40;23.70
53776;DHT22;44276;49.534;6.378;2022-07-09T07:20:35;33.30;22.50
53776;DHT22;44276;49.534;6.378;2022-07-09T07:23:04;33.40;21.90
53776;DHT22;44276;49.534;6.378;2022-07-09T07:25:32;33.10;22.40
53776;DHT22;44276;49.534;6.378;2022-07-09T07:28:00;33.80;21.90
53776;DHT22;44276;49.534;6.378;2022-07-09T07:30:30;33.60;21.50
53776;DHT22;44276;49.534;6.378;2022-07-09T07:32:59;32.90;22.60
53776;DHT22;44276;49.534;6.378;2022-07-09T07:35:28;33.20;21.60
53776;DHT22;44276;49.534;6.378;2022-07-09T07:37:56;32.80;22.10
53776;DHT22;44276;49.534;6.378;2022-07-09T07:40:26;32.70;22.20
53776;DHT22;44276;49.534;6.378;2022-07-09T07:42:54;33.90;21.30
53776;DHT22;44276;49.534;6.378;2022-07-09T07:45:23;33.70;20.90
53776;DHT22;44276;49.534;6.378;2022-07-09T07:47:52;33.30;21.70
53776;DHT22;44276;49.534;6.378;2022-07-09T07:50:21;33.70;21.20
53776;DHT22;44276;49.534;6.378;2022-07-09T07:52:49;33.50;21.70
53776;DHT22;44276;49.534;6.378;2022-07-09T07:55:17;33.80;21.00
53776;DHT22;44276;49.534;6.378;2022-07-09T07:57:47;33.90;21.20
53776;DHT22;44276;49.534;6.378;2022-07-09T08:00:15;34.50;20.60
53776;DHT22;44276;49.534;6.378;2022-07-09T08:02:43;34.90;19.90
53776;DHT22;44276;49.534;6.378;2022-07-09T08:05:12;35.20;19.40
53776;DHT22;44276;49.534;6.378;2022-07-09T08:07:41;34.30;20.00
53776;DHT22;44276;49.534;6.378;2022-07-09T08:10:09;34.50;19.50
53776;DHT22;44276;49.534;6.378;2022-07-09T08:12:37;34.80;19.20
53776;DHT22;44276;49.534;6.378;2022-07-09T08:15:08;35.00;19.00
53776;DHT22;44276;49.534;6.378;2022-07-09T08:17:37;34.80;19.10
53776;DHT22;44276;49.534;6.378;2022-07-09T08:20:06;34.30;19.90
53776;DHT22;44276;49.534;6.378;2022-07-09T08:22:34;34.00;20.40
53776;DHT22;44276;49.534;6.378;2022-07-09T08:25:03;34.10;20.30
53776;DHT22;44276;49.534;6.378;2022-07-09T08:27:39;34.30;19.60
53776;DHT22;44276;49.534;6.378;2022-07-09T08:30:10;35.00;19.60
53776;DHT22;44276;49.534;6.378;2022-07-09T08:32:38;36.00;18.30
53776;DHT22;44276;49.534;6.378;2022-07-09T08:35:07;36.90;17.50
53776;DHT22;44276;49.534;6.378;2022-07-09T08:37:36;37.20;17.60
53776;DHT22;44276;49.534;6.378;2022-07-09T08:40:05;37.90;16.60
53776;DHT22;44276;49.534;6.378;2022-07-09T08:42:34;37.40;16.80
53776;DHT22;44276;49.534;6.378;2022-07-09T08:45:10;36.00;18.20
53776;DHT22;44276;49.534;6.378;2022-07-09T08:47:41;35.00;19.50
53776;DHT22;44276;49.534;6.378;2022-07-09T08:50:10;34.30;20.30
53776;DHT22;44276;49.534;6.378;2022-07-09T08:52:39;33.10;21.20
53776;DHT22;44276;49.534;6.378;2022-07-09T08:55:09;31.60;22.60
53776;DHT22;44276;49.534;6.378;2022-07-09T08:57:37;30.40;24.50
53776;DHT22;44276;49.534;6.378;2022-07-09T09:00:06;29.40;25.60
53776;DHT22;44276;49.534;6.378;2022-07-09T09:02:37;28.20;27.20
53776;DHT22;44276;49.534;6.378;2022-07-09T09:05:08;27.60;27.90
53776;DHT22;44276;49.534;6.378;2022-07-09T09:07:37;28.10;27.60
53776;DHT22;44276;49.534;6.378;2022-07-09T09:10:06;30.30;24.80
53776;DHT22;44276;49.534;6.378;2022-07-09T09:12:34;32.80;21.90
53776;DHT22;44276;49.534;6.378;2022-07-09T09:15:06;34.90;19.50
53776;DHT22;44276;49.534;6.378;2022-07-09T09:17:43;36.00;17.80
53776;DHT22;44276;49.534;6.378;2022-07-09T09:20:13;35.80;18.10
53776;DHT22;44276;49.534;6.378;2022-07-09T09:22:46;34.50;19.00
53776;DHT22;44276;49.534;6.378;2022-07-09T09:25:16;32.80;20.90
53776;DHT22;44276;49.534;6.378;2022-07-09T09:27:52;31.70;22.00
53776;DHT22;44276;49.534;6.378;2022-07-09T09:30:22;30.50;23.40
53776;DHT22;44276;49.534;6.378;2022-07-09T09:32:56;31.30;23.30
53776;DHT22;44276;49.534;6.378;2022-07-09T09:35:25;33.60;19.50
53776;DHT22;44276;49.534;6.378;2022-07-09T09:37:55;34.50;18.80
53776;DHT22;44276;49.534;6.378;2022-07-09T09:40:24;35.20;18.20
53776;DHT22;44276;49.534;6.378;2022-07-09T09:42:53;35.40;18.00
53776;DHT22;44276;49.534;6.378;2022-07-09T09:45:24;33.90;19.00
53776;DHT22;44276;49.534;6.378;2022-07-09T09:47:53;31.80;20.80
53776;DHT22;44276;49.534;6.378;2022-07-09T09:50:24;30.00;23.00
53776;DHT22;44276;49.534;6.378;2022-07-09T09:52:54;29.30;24.70
53776;DHT22;44276;49.534;6.378;2022-07-09T09:55:22;30.40;22.30
53776;DHT22;44276;49.534;6.378;2022-07-09T09:57:51;32.30;20.40
53776;DHT22;44276;49.534;6.378;2022-07-09T10:00:21;32.60;20.40
53776;DHT22;44276;49.534;6.378;2022-07-09T10:02:49;33.40;19.80
53776;DHT22;44276;49.534;6.378;2022-07-09T10:05:18;33.00;20.00
53776;DHT22;44276;49.534;6.378;2022-07-09T10:07:47;31.80;21.30
53776;DHT22;44276;49.534;6.378;2022-07-09T10:10:17;31.20;21.80
53776;DHT22;44276;49.534;6.378;2022-07-09T10:12:47;31.80;20.70
53776;DHT22;44276;49.534;6.378;2022-07-09T10:15:22;31.90;21.00
53776;DHT22;44276;49.534;6.378;2022-07-09T10:17:53;31.30;22.30
53776;DHT22;44276;49.534;6.378;2022-07-09T10:20:29;30.20;23.10
53776;DHT22;44276;49.534;6.378;2022-07-09T10:23:02;29.60;24.30
53776;DHT22;44276;49.534;6.378;2022-07-09T10:25:43;29.00;24.80
53776;DHT22;44276;49.534;6.378;2022-07-09T10:28:16;29.60;24.10
53776;DHT22;44276;49.534;6.378;2022-07-09T10:30:44;31.60;21.40
53776;DHT22;44276;49.534;6.378;2022-07-09T10:33:19;33.50;20.10
53776;DHT22;44276;49.534;6.378;2022-07-09T10:35:51;33.10;20.40
53776;DHT22;44276;49.534;6.378;2022-07-09T10:38:33;32.20;21.40
53776;DHT22;44276;49.534;6.378;2022-07-09T10:41:02;31.10;22.50
53776;DHT22;44276;49.534;6.378;2022-07-09T10:43:37;30.40;23.10
53776;DHT22;44276;49.534;6.378;2022-07-09T10:46:10;30.30;23.30
53776;DHT22;44276;49.534;6.378;2022-07-09T10:48:39;31.50;22.10
53776;DHT22;44276;49.534;6.378;2022-07-09T10:51:07;33.20;20.40
53776;DHT22;44276;49.534;6.378;2022-07-09T10:53:36;34.60;17.90
53776;DHT22;44276;49.534;6.378;2022-07-09T10:56:06;35.70;17.30
53776;DHT22;44276;49.534;6.378;2022-07-09T10:58:35;37.50;15.40
53776;DHT22;44276;49.534;6.378;2022-07-09T11:01:04;38.00;15.70
53776;DHT22;44276;49.534;6.378;2022-07-09T11:03:35;37.80;15.20
53776;DHT22;44276;49.534;6.378;2022-07-09T11:06:03;36.10;16.50
53776;DHT22;44276;49.534;6.378;2022-07-09T11:08:32;34.00;18.40
53776;DHT22;44276;49.534;6.378;2022-07-09T11:11:02;32.70;20.30
53776;DHT22;44276;49.534;6.378;2022-07-09T11:13:31;31.80;21.30
53776;DHT22;44276;49.534;6.378;2022-07-09T11:15:59;31.50;21.40
53776;DHT22;44276;49.534;6.378;2022-07-09T11:18:29;32.90;20.00
53776;DHT22;44276;49.534;6.378;2022-07-09T11:20:58;33.90;18.40
53776;DHT22;44276;49.534;6.378;2022-07-09T11:23:26;33.00;18.50
53776;DHT22;44276;49.534;6.378;2022-07-09T11:25:54;32.70;19.20
53776;DHT22;44276;49.534;6.378;2022-07-09T11:28:25;32.20;19.50
53776;DHT22;44276;49.534;6.378;2022-07-09T11:31:01;32.50;20.10
53776;DHT22;44276;49.534;6.378;2022-07-09T11:33:30;32.70;19.90
53776;DHT22;44276;49.534;6.378;2022-07-09T11:36:12;33.70;18.50
53776;DHT22;44276;49.534;6.378;2022-07-09T11:38:46;35.20;17.10
53776;DHT22;44276;49.534;6.378;2022-07-09T11:41:15;36.80;15.50
53776;DHT22;44276;49.534;6.378;2022-07-09T11:43:47;37.50;14.20
53776;DHT22;44276;49.534;6.378;2022-07-09T11:46:17;36.40;15.00
53776;DHT22;44276;49.534;6.378;2022-07-09T11:48:49;36.90;14.60
53776;DHT22;44276;49.534;6.378;2022-07-09T11:51:28;37.80;14.30
53776;DHT22;44276;49.534;6.378;2022-07-09T11:53:58;38.50;13.20
53776;DHT22;44276;49.534;6.378;2022-07-09T11:56:26;39.10;13.20
53776;DHT22;44276;49.534;6.378;2022-07-09T11:58:56;38.70;13.30
53776;DHT22;44276;49.534;6.378;2022-07-09T12:01:24;37.90;14.20
53776;DHT22;44276;49.534;6.378;2022-07-09T12:03:52;36.10;15.20
53776;DHT22;44276;49.534;6.378;2022-07-09T12:06:20;33.90;17.50
53776;DHT22;44276;49.534;6.378;2022-07-09T12:08:58;32.60;19.10
53776;DHT22;44276;49.534;6.378;2022-07-09T12:11:28;32.00;19.80
53776;DHT22;44276;49.534;6.378;2022-07-09T12:13:58;31.70;20.10
53776;DHT22;44276;49.534;6.378;2022-07-09T12:16:26;31.40;20.20
53776;DHT22;44276;49.534;6.378;2022-07-09T12:18:55;31.50;19.50
53776;DHT22;44276;49.534;6.378;2022-07-09T12:21:23;32.30;18.20
53776;DHT22;44276;49.534;6.378;2022-07-09T12:23:52;34.10;17.00
53776;DHT22;44276;49.534;6.378;2022-07-09T12:26:20;35.20;15.70
53776;DHT22;44276;49.534;6.378;2022-07-09T12:28:48;34.50;16.60
53776;DHT22;44276;49.534;6.378;2022-07-09T12:31:24;33.70;17.40
53776;DHT22;44276;49.534;6.378;2022-07-09T12:33:52;33.40;17.80
53776;DHT22;44276;49.534;6.378;2022-07-09T12:36:21;33.40;17.70
53776;DHT22;44276;49.534;6.378;2022-07-09T12:39:09;33.00;18.00
53776;DHT22;44276;49.534;6.378;2022-07-09T12:41:37;32.40;18.10
53776;DHT22;44276;49.534;6.378;2022-07-09T12:44:05;32.70;18.40
53776;DHT22;44276;49.534;6.378;2022-07-09T12:46:35;33.10;17.80
53776;DHT22;44276;49.534;6.378;2022-07-09T12:49:04;33.60;17.00
53776;DHT22;44276;49.534;6.378;2022-07-09T12:51:32;32.60;17.70
53776;DHT22;44276;49.534;6.378;2022-07-09T12:54:00;31.60;18.50
53776;DHT22;44276;49.534;6.378;2022-07-09T12:56:28;32.00;19.10
53776;DHT22;44276;49.534;6.378;2022-07-09T12:59:17;33.70;16.60
53776;DHT22;44276;49.534;6.378;2022-07-09T13:01:47;34.80;15.50
53776;DHT22;44276;49.534;6.378;2022-07-09T13:04:15;35.30;14.90
53776;DHT22;44276;49.534;6.378;2022-07-09T13:06:43;34.50;15.70
53776;DHT22;44276;49.534;6.378;2022-07-09T13:09:12;32.50;17.90
53776;DHT22;44276;49.534;6.378;2022-07-09T13:11:40;31.10;19.30
53776;DHT22;44276;49.534;6.378;2022-07-09T13:14:08;30.40;19.90
53776;DHT22;44276;49.534;6.378;2022-07-09T13:16:36;30.40;20.20
53776;DHT22;44276;49.534;6.378;2022-07-09T13:19:06;30.70;19.60
53776;DHT22;44276;49.534;6.378;2022-07-09T13:21:34;30.90;19.70
53776;DHT22;44276;49.534;6.378;2022-07-09T13:24:02;30.60;19.90
53776;DHT22;44276;49.534;6.378;2022-07-09T13:26:31;30.30;19.90
53776;DHT22;44276;49.534;6.378;2022-07-09T13:29:02;29.90;20.00
53776;DHT22;44276;49.534;6.378;2022-07-09T13:31:30;29.40;20.80
53776;DHT22;44276;49.534;6.378;2022-07-09T13:33:59;28.90;21.40
53776;DHT22;44276;49.534;6.378;2022-07-09T13:36:29;28.80;21.70
53776;DHT22;44276;49.534;6.378;2022-07-09T13:38:58;29.00;21.60
53776;DHT22;44276;49.534;6.378;2022-07-09T13:41:26;29.30;21.10
53776;DHT22;44276;49.534;6.378;2022-07-09T13:43:54;29.40;21.10
53776;DHT22;44276;49.534;6.378;2022-07-09T13:46:22;29.70;21.10
53776;DHT22;44276;49.534;6.378;2022-07-09T13:48:50;29.80;20.80
53776;DHT22;44276;49.534;6.378;2022-07-09T13:51:18;29.70;20.80
53776;DHT22;44276;49.534;6.378;2022-07-09T13:53:48;29.90;20.70
53776;DHT22;44276;49.534;6.378;2022-07-09T13:56:16;30.50;20.70
53776;DHT22;44276;49.534;6.378;2022-07-09T13:58:46;31.10;19.80
53776;DHT22;44276;49.534;6.378;2022-07-09T14:01:15;31.60;19.30
53776;DHT22;44276;49.534;6.378;2022-07-09T14:03:43;31.10;19.60
53776;DHT22;44276;49.534;6.378;2022-07-09T14:06:11;30.20;20.70
53776;DHT22;44276;49.534;6.378;2022-07-09T14:09:01;30.00;21.20
53776;DHT22;44276;49.534;6.378;2022-07-09T14:11:30;30.40;20.80
53776;DHT22;44276;49.534;6.378;2022-07-09T14:13:58;30.60;20.20
53776;DHT22;44276;49.534;6.378;2022-07-09T14:16:27;31.10;19.90
53776;DHT22;44276;49.534;6.378;2022-07-09T14:18:55;32.20;19.10
53776;DHT22;44276;49.534;6.378;2022-07-09T14:21:23;32.80;18.40
53776;DHT22;44276;49.534;6.378;2022-07-09T14:23:51;32.70;18.60
53776;DHT22;44276;49.534;6.378;2022-07-09T14:26:21;33.10;17.90
53776;DHT22;44276;49.534;6.378;2022-07-09T14:28:49;33.30;18.20
53776;DHT22;44276;49.534;6.378;2022-07-09T14:31:17;33.20;17.50
53776;DHT22;44276;49.534;6.378;2022-07-09T14:33:46;32.80;18.30
53776;DHT22;44276;49.534;6.378;2022-07-09T14:36:14;32.30;18.80
53776;DHT22;44276;49.534;6.378;2022-07-09T14:38:42;32.00;19.50
53776;DHT22;44276;49.534;6.378;2022-07-09T14:41:10;31.80;19.30
53776;DHT22;44276;49.534;6.378;2022-07-09T14:43:39;32.60;18.80
53776;DHT22;44276;49.534;6.378;2022-07-09T14:46:08;33.50;18.10
53776;DHT22;44276;49.534;6.378;2022-07-09T14:48:36;33.80;17.50
53776;DHT22;44276;49.534;6.378;2022-07-09T14:51:05;33.30;18.10
53776;DHT22;44276;49.534;6.378;2022-07-09T14:53:33;32.70;18.10
53776;DHT22;44276;49.534;6.378;2022-07-09T14:56:09;32.50;18.70
53776;DHT22;44276;49.534;6.378;2022-07-09T14:58:37;32.00;18.60
53776;DHT22;44276;49.534;6.378;2022-07-09T15:01:07;31.50;19.20
53776;DHT22;44276;49.534;6.378;2022-07-09T15:03:35;31.60;19.20
53776;DHT22;44276;49.534;6.378;2022-07-09T15:06:04;32.00;19.40
53776;DHT22;44276;49.534;6.378;2022-07-09T15:08:33;32.40;18.90
53776;DHT22;44276;49.534;6.378;2022-07-09T15:11:01;32.50;19.30
53776;DHT22;44276;49.534;6.378;2022-07-09T15:13:29;32.30;19.90
53776;DHT22;44276;49.534;6.378;2022-07-09T15:15:59;31.90;19.40
53776;DHT22;44276;49.534;6.378;2022-07-09T15:18:27;31.70;20.00
53776;DHT22;44276;49.534;6.378;2022-07-09T15:20:55;31.90;20.80
53776;DHT22;44276;49.534;6.378;2022-07-09T15:23:24;32.50;19.60
53776;DHT22;44276;49.534;6.378;2022-07-09T15:25:52;32.80;18.70
53776;DHT22;44276;49.534;6.378;2022-07-09T15:28:20;32.50;19.40
53776;DHT22;44276;49.534;6.378;2022-07-09T15:30:49;32.30;19.60
53776;DHT22;44276;49.534;6.378;2022-07-09T15:33:18;32.20;19.90
53776;DHT22;44276;49.534;6.378;2022-07-09T15:35:47;32.20;19.20
53776;DHT22;44276;49.534;6.378;2022-07-09T15:38:15;31.20;20.20
53776;DHT22;44276;49.534;6.378;2022-07-09T15:40:43;30.30;21.10
53776;DHT22;44276;49.534;6.378;2022-07-09T15:43:11;29.80;21.90